Time;durP1;ratioP1;P1;durP2;ratioP2;P2;SDS_P1;SDS_P2;PMS_P1;PMS_P2;Temp;Humidity;BMP_temperature;BMP_pressure;BME280_temperature;BME280_humidity;BME280_pressure;Samples;Min_cycle;Max_cycle;Signal;HPM_P1;HPM_P2
2022/11/02 00:01:59;;;;;;;12.20;2.67;;;;;;;-145.69;100.00;52470.13;5155166;27;20283;-85
2022/11/02 00:04:25;;;;;;;5.70;2.40;;;;;;;-145.69;100.00;52499.84;5158091;27;20299;-85
2022/11/02 00:06:52;;;;;;;11.17;2.50;;;;;;;-145.69;100.00;52462.22;5157923;27;20195;-85
2022/11/02 00:09:18;;;;;;;4.90;2.40;;;;;;;-145.69;100.00;52432.50;5157865;27;20232;-85
2022/11/02 00:11:45;;;;;;;7.53;2.70;;;;;;;-145.69;100.00;52424.59;5140180;27;20967;-85
2022/11/02 00:14:14;;;;;;;10.77;2.20;;;;;;;-145.69;100.00;52476.06;5123928;27;20548;-85
2022/11/02 00:16:44;;;;;;;8.90;2.40;;;;;;;-145.69;100.00;52454.28;5116580;28;20197;-85
2022/11/02 00:19:12;;;;;;;10.10;2.30;;;;;;;-145.69;100.00;52452.31;5116039;28;20202;-85
2022/11/02 00:21:39;;;;;;;9.97;2.10;;;;;;;-145.69;100.00;52470.13;5146687;27;20199;-85
2022/11/02 00:24:12;;;;;;;10.93;1.90;;;;;;;-145.69;100.00;52446.38;5157425;27;20677;-83
2022/11/02 00:26:39;;;;;;;5.33;2.17;;;;;;;-145.69;100.00;52448.34;5157452;27;20239;-85
2022/11/02 00:29:06;;;;;;;4.83;1.50;;;;;;;-145.69;100.00;52444.38;5157481;27;20220;-85
2022/11/02 00:31:33;;;;;;;4.77;1.87;;;;;;;-145.69;100.00;52466.16;5142062;27;20200;-85
2022/11/02 00:33:59;;;;;;;6.20;2.10;;;;;;;-145.69;100.00;52480.03;5136335;27;20316;-85
2022/11/02 00:36:28;;;;;;;10.03;1.87;;;;;;;-145.69;100.00;52464.19;5137039;27;20207;-85
2022/11/02 00:38:54;;;;;;;6.63;2.07;;;;;;;-145.69;100.00;52472.13;5136345;27;20201;-85
2022/11/02 00:41:21;;;;;;;7.00;2.07;;;;;;;-145.69;100.00;52505.78;5148423;27;20188;-85
2022/11/02 00:43:47;;;;;;;3.97;1.90;;;;;;;-145.69;100.00;52476.06;5157266;27;20196;-84
2022/11/02 00:46:14;;;;;;;7.20;2.00;;;;;;;-145.69;100.00;52489.94;5157152;27;20202;-85
2022/11/02 00:48:43;;;;;;;6.33;2.23;;;;;;;-145.69;100.00;52456.28;5157035;27;20578;-85
2022/11/02 00:51:10;;;;;;;7.57;1.70;;;;;;;-145.69;100.00;52416.66;5146140;27;20662;-85
2022/11/02 00:53:40;;;;;;;6.37;1.90;;;;;;;-145.69;100.00;52464.19;5137520;27;20760;-85
2022/11/02 00:56:08;;;;;;;5.30;1.90;;;;;;;-145.69;100.00;52505.78;5136062;27;20279;-84
2022/11/02 00:58:34;;;;;;;6.37;1.90;;;;;;;-145.69;100.00;52474.09;5136213;27;20260;-84
2022/11/02 01:01:04;;;;;;;3.73;1.80;;;;;;;-145.69;100.00;52438.44;5144625;27;20194;-85
2022/11/02 01:03:31;;;;;;;4.00;1.87;;;;;;;-145.69;100.00;52466.16;5156764;27;20200;-85
2022/11/02 01:05:57;;;;;;;7.27;1.93;;;;;;;-145.69;100.00;52487.97;5156618;27;20300;-85
2022/11/02 01:08:24;;;;;;;4.47;2.00;;;;;;;-145.69;100.00;52472.13;5156708;27;20231;-85
2022/11/02 01:10:52;;;;;;;9.00;2.30;;;;;;;-145.69;100.00;52460.22;5149139;27;20192;-84
2022/11/02 01:13:18;;;;;;;9.10;2.20;;;;;;;-145.69;100.00;52440.44;5151922;27;20203;-85
2022/11/02 01:15:45;;;;;;;6.10;2.33;;;;;;;-145.69;100.00;52458.25;5141995;27;20631;-86
2022/11/02 01:18:12;;;;;;;4.50;2.00;;;;;;;-145.69;100.00;52468.16;5148723;27;20191;-85
2022/11/02 01:20:38;;;;;;;6.50;2.20;;;;;;;-145.69;100.00;52470.13;5156728;27;20229;-85
2022/11/02 01:23:05;;;;;;;7.13;2.00;;;;;;;-145.69;100.00;52466.16;5156610;27;20260;-85
2022/11/02 01:25:31;;;;;;;4.33;1.43;;;;;;;-145.69;100.00;52460.22;5156379;27;20200;-84
2022/11/02 01:28:02;;;;;;;11.37;2.27;;;;;;;-145.69;100.00;52464.19;5142469;27;20559;-85
2022/11/02 01:30:28;;;;;;;8.20;2.00;;;;;;;-145.69;100.00;52507.75;5115400;28;20687;-85
2022/11/02 01:32:55;;;;;;;7.43;2.37;;;;;;;-145.69;100.00;52456.28;5114466;28;20206;-85
2022/11/02 01:35:21;;;;;;;8.63;2.10;;;;;;;-145.69;100.00;52464.19;5115351;28;20208;-85
2022/11/02 01:37:48;;;;;;;7.77;2.00;;;;;;;-145.69;100.00;52497.84;5137309;27;20561;-85
2022/11/02 01:40:15;;;;;;;6.67;1.90;;;;;;;-145.69;100.00;52476.06;5156445;27;20200;-86
2022/11/02 01:42:41;;;;;;;8.70;2.73;;;;;;;-145.69;100.00;52489.94;5155411;27;20199;-85
2022/11/02 01:45:13;;;;;;;10.23;2.13;;;;;;;-145.69;100.00;52484.00;5156554;27;20222;-85
2022/11/02 01:47:45;;;;;;;9.13;2.70;;;;;;;-145.69;100.00;52476.06;5155462;27;20275;-85
2022/11/02 01:50:16;;;;;;;8.57;2.33;;;;;;;-145.69;100.00;52487.97;5155741;27;20226;-85
2022/11/02 01:52:42;;;;;;;10.17;2.13;;;;;;;-145.69;100.00;52456.28;5156143;27;20199;-85
2022/11/02 01:55:15;;;;;;;9.47;2.00;;;;;;;-145.69;100.00;52456.28;5155983;27;20715;-86
2022/11/02 01:57:49;;;;;;;11.97;2.30;;;;;;;-145.69;100.00;52448.34;5155716;27;20211;-86
2022/11/02 02:00:19;;;;;;;12.90;2.40;;;;;;;-145.69;100.00;52484.00;5156035;27;20192;-85
2022/11/02 02:02:51;;;;;;;13.47;2.30;;;;;;;-145.69;100.00;52474.09;5155880;27;20210;-85
2022/11/02 02:05:19;;;;;;;10.90;2.10;;;;;;;-145.69;100.00;52487.97;5155740;27;20207;-85
2022/11/02 02:07:47;;;;;;;7.13;2.10;;;;;;;-145.69;100.00;52430.53;5148489;27;20218;-85
2022/11/02 02:10:14;;;;;;;9.53;2.10;;;;;;;-145.69;100.00;52422.59;5130797;27;20311;-84
2022/11/02 02:12:42;;;;;;;13.97;2.20;;;;;;;-145.69;100.00;52462.22;5133621;27;20619;-85
2022/11/02 02:15:10;;;;;;;10.47;2.47;;;;;;;-145.69;100.00;52482.00;5135011;27;20209;-84
2022/11/02 02:17:45;;;;;;;8.40;2.17;;;;;;;-145.69;100.00;52513.69;5138841;27;20693;-84
2022/11/02 02:20:26;;;;;;;6.97;1.77;;;;;;;-145.69;100.00;52460.22;5155540;27;20646;-85
2022/11/02 02:23:24;;;;;;;5.87;1.73;;;;;;;-145.69;100.00;52505.78;5155919;27;20203;-85
2022/11/02 02:26:16;;;;;;;11.07;1.73;;;;;;;-145.69;100.00;52460.22;5155187;27;20200;-86
2022/11/02 02:28:53;;;;;;;12.33;2.30;;;;;;;-145.69;100.00;52501.81;5140815;27;20203;-85
2022/11/02 02:31:26;;;;;;;3.13;1.30;;;;;;;-145.69;100.00;52484.00;5135025;27;20287;-86
2022/11/02 02:33:58;;;;;;;6.97;1.87;;;;;;;-145.69;100.00;52499.84;5134280;27;20740;-85
2022/11/02 02:36:31;;;;;;;6.57;1.33;;;;;;;-145.69;100.00;52476.06;5134681;27;20218;-85
2022/11/02 02:39:03;;;;;;;12.73;1.50;;;;;;;-145.69;100.00;52466.16;5135929;27;20201;-85
2022/11/02 02:41:38;;;;;;;12.33;1.93;;;;;;;-145.69;100.00;52501.81;5134692;27;20197;-85
2022/11/02 02:44:10;;;;;;;4.93;1.43;;;;;;;-145.69;100.00;52499.84;5134252;27;20200;-86
2022/11/02 02:46:40;;;;;;;3.90;1.40;;;;;;;-145.69;100.00;52484.00;5134552;27;20738;-85
2022/11/02 02:49:14;;;;;;;8.50;1.60;;;;;;;-145.69;100.00;52468.16;5151304;27;20686;-85
2022/11/02 02:51:41;;;;;;;5.07;1.60;;;;;;;-145.69;100.00;52501.81;5155404;27;20202;-85
2022/11/02 02:54:12;;;;;;;5.77;1.83;;;;;;;-145.69;100.00;52480.03;5154722;27;20196;-85
2022/11/02 02:56:42;;;;;;;10.30;2.10;;;;;;;-145.69;100.00;52527.56;5154972;27;20303;-86
2022/11/02 02:59:17;;;;;;;9.70;2.10;;;;;;;-145.69;100.00;52495.88;5137520;27;20230;-86
2022/11/02 03:01:45;;;;;;;8.33;2.00;;;;;;;-145.69;100.00;52476.06;5134175;27;20238;-85
2022/11/02 03:04:12;;;;;;;8.87;1.77;;;;;;;-145.69;100.00;52489.94;5134468;27;20196;-85
2022/11/02 03:06:41;;;;;;;7.90;1.77;;;;;;;-145.69;100.00;52484.00;5134265;27;20196;-85
2022/11/02 03:09:12;;;;;;;4.67;1.77;;;;;;;-145.69;100.00;52482.00;5151235;27;20222;-85
2022/11/02 03:11:50;;;;;;;6.50;1.80;;;;;;;-145.69;100.00;52513.69;5154749;27;20202;-85
2022/11/02 03:14:30;;;;;;;8.27;1.70;;;;;;;-145.69;100.00;52470.13;5154991;27;20192;-85
2022/11/02 03:17:09;;;;;;;10.83;1.93;;;;;;;-145.69;100.00;52478.06;5155303;27;20200;-84
2022/11/02 03:19:44;;;;;;;6.63;1.63;;;;;;;-145.69;100.00;52489.94;5133832;27;20320;-85
2022/11/02 03:22:22;;;;;;;10.53;1.97;;;;;;;-145.69;100.00;52476.06;5134266;28;20231;-85
2022/11/02 03:24:59;;;;;;;9.13;1.90;;;;;;;-145.69;100.00;52466.16;5134105;27;20710;-85
2022/11/02 03:27:35;;;;;;;6.73;1.67;;;;;;;-145.69;100.00;52489.94;5150300;27;20245;-85
2022/11/02 03:30:07;;;;;;;11.23;1.90;;;;;;;-145.69;100.00;52503.81;5154819;27;20224;-85
2022/11/02 03:32:38;;;;;;;5.27;1.63;;;;;;;-145.69;100.00;52482.00;5154571;27;20245;-84
2022/11/02 03:35:16;;;;;;;5.53;1.90;;;;;;;-145.69;100.00;52476.06;5154856;27;20567;-85
2022/11/02 03:37:50;;;;;;;11.17;1.70;;;;;;;-145.69;100.00;52505.78;5135439;27;20536;-85
2022/11/02 03:40:21;;;;;;;9.50;1.83;;;;;;;-145.69;100.00;52476.06;5133640;27;20200;-85
2022/11/02 03:42:49;;;;;;;12.67;1.60;;;;;;;-145.69;100.00;52484.00;5133941;28;20197;-86
2022/11/02 03:45:22;;;;;;;7.50;1.53;;;;;;;-145.69;100.00;52424.59;5134003;27;20201;-85
2022/11/02 03:47:54;;;;;;;7.10;1.57;;;;;;;-145.69;100.00;52484.00;5152405;27;20224;-85
2022/11/02 03:50:23;;;;;;;6.97;2.00;;;;;;;-145.69;100.00;52478.06;5153177;27;20461;-85
2022/11/02 03:52:56;;;;;;;8.57;1.73;;;;;;;-145.69;100.00;52484.00;5154678;27;20192;-86
2022/11/02 03:55:29;;;;;;;6.20;1.50;;;;;;;-145.69;100.00;52480.03;5152744;27;20376;-86
2022/11/02 03:57:56;;;;;;;9.13;1.60;;;;;;;-145.69;100.00;52491.91;5154735;27;20196;-85
2022/11/02 04:00:26;;;;;;;8.30;1.30;;;;;;;-145.69;100.00;52464.19;5154493;27;20241;-86
2022/11/02 04:02:55;;;;;;;6.47;1.37;;;;;;;-145.69;100.00;52487.97;5155160;27;20229;-85
2022/11/02 04:05:27;;;;;;;9.13;1.50;;;;;;;-145.69;100.00;52450.31;5154260;27;20192;-85
2022/11/02 04:14:36;;;;;;;7.00;1.70;;;;;;;-145.69;100.00;52519.63;5158267;27;20657;-86
2022/11/02 04:16:11;;;;;;;10.10;1.67;;;;;;;-145.69;100.00;52484.00;5142504;27;20203;-86
2022/11/02 04:21:22;;;;;;;6.80;1.50;;;;;;;-145.69;100.00;52464.19;5137331;27;20207;-85
2022/11/02 04:26:33;;;;;;;19.77;2.67;;;;;;;-145.69;100.00;52484.00;5137971;27;20657;-86
2022/11/02 04:28:59;;;;;;;8.40;1.80;;;;;;;-145.69;100.00;52491.91;5136635;27;20193;-85
2022/11/02 04:34:08;;;;;;;8.33;1.57;;;;;;;-145.69;100.00;52464.19;5137200;27;20240;-85
2022/11/02 04:36:36;;;;;;;10.67;1.93;;;;;;;-145.69;100.00;52454.28;5151148;27;20188;-86
2022/11/02 04:39:02;;;;;;;11.10;1.70;;;;;;;-145.69;100.00;52480.03;5157557;27;20198;-86
2022/11/02 04:41:44;;;;;;;12.23;2.07;;;;;;;-145.69;100.00;52460.22;5157877;27;20566;-85
2022/11/02 04:44:12;;;;;;;9.70;2.00;;;;;;;-145.69;100.00;52482.00;5157653;27;20650;-85
2022/11/02 04:46:40;;;;;;;12.33;1.90;;;;;;;-145.69;100.00;52470.13;5143671;27;20189;-85
2022/11/02 04:49:11;;;;;;;11.37;1.97;;;;;;;-145.69;100.00;52478.06;5136360;27;20566;-86
2022/11/02 04:51:39;;;;;;;7.80;1.70;;;;;;;-145.69;100.00;52460.22;5136815;27;20288;-85
2022/11/02 04:54:06;;;;;;;6.53;1.63;;;;;;;-145.69;100.00;52485.97;5136479;27;20231;-85
2022/11/02 04:56:33;;;;;;;7.43;1.80;;;;;;;-145.69;100.00;52509.75;5148470;27;20204;-85
2022/11/02 04:59:02;;;;;;;5.43;1.20;;;;;;;-145.69;100.00;52460.22;5157373;27;20532;-85
2022/11/02 05:01:30;;;;;;;9.17;1.70;;;;;;;-145.69;100.00;52491.91;5156622;27;20249;-86
2022/11/02 05:03:58;;;;;;;6.17;1.77;;;;;;;-145.69;100.00;52482.00;5157082;27;20196;-85
2022/11/02 05:06:25;;;;;;;14.23;1.63;;;;;;;-145.69;100.00;52478.06;5152570;27;20670;-85
2022/11/02 05:08:53;;;;;;;8.97;1.53;;;;;;;-145.69;100.00;52484.00;5136603;27;20215;-85
2022/11/02 05:11:20;;;;;;;9.10;1.70;;;;;;;-145.69;100.00;52499.84;5136249;27;20698;-85
2022/11/02 05:13:46;;;;;;;9.93;2.00;;;;;;;-145.69;100.00;52487.97;5136336;27;20253;-85
2022/11/02 05:16:14;;;;;;;7.27;1.90;;;;;;;-145.69;100.00;52487.97;5135939;27;20258;-85
2022/11/02 05:18:44;;;;;;;6.20;1.67;;;;;;;-145.69;100.00;52476.06;5155346;27;20196;-86
2022/11/02 05:21:13;;;;;;;17.40;2.30;;;;;;;-145.69;100.00;52535.47;5156611;27;20290;-85
2022/11/02 05:23:39;;;;;;;11.10;1.93;;;;;;;-145.69;100.00;52484.00;5157001;27;20676;-85
2022/11/02 05:26:09;;;;;;;10.13;1.70;;;;;;;-145.69;100.00;52501.81;5156711;27;20749;-85
2022/11/02 05:28:35;;;;;;;8.37;1.53;;;;;;;-145.69;100.00;52511.72;5138288;27;20220;-85
2022/11/02 05:31:02;;;;;;;9.90;1.87;;;;;;;-145.69;100.00;52491.91;5135529;27;20285;-84
2022/11/02 05:33:30;;;;;;;14.67;1.90;;;;;;;-145.69;100.00;52480.03;5135785;27;20586;-83
2022/11/02 05:35:58;;;;;;;6.97;1.83;;;;;;;-145.69;100.00;52474.09;5136001;27;20291;-85
2022/11/02 05:38:27;;;;;;;11.10;2.63;;;;;;;-145.69;100.00;52521.63;5151475;27;20196;-85
2022/11/02 05:40:55;;;;;;;9.20;2.03;;;;;;;-145.69;100.00;52491.91;5156263;27;20207;-85
2022/11/02 05:43:22;;;;;;;6.97;1.97;;;;;;;-145.69;100.00;52511.72;5155754;27;20738;-85
2022/11/02 05:45:53;;;;;;;7.37;1.90;;;;;;;-145.69;100.00;52501.81;5156548;27;20252;-85
2022/11/02 05:48:20;;;;;;;5.83;1.90;;;;;;;-145.69;100.00;52482.00;5141008;27;20193;-85
2022/11/02 05:50:47;;;;;;;8.03;1.80;;;;;;;-145.69;100.00;52497.84;5135013;27;20319;-85
2022/11/02 05:53:14;;;;;;;12.13;2.33;;;;;;;-145.69;100.00;52503.81;5135354;27;20582;-84
2022/11/02 05:55:42;;;;;;;7.27;2.03;;;;;;;-145.69;100.00;52491.91;5135636;27;20211;-85
2022/11/02 05:58:08;;;;;;;13.60;2.60;;;;;;;-145.69;100.00;52484.00;5148277;27;20195;-85
2022/11/02 06:00:35;;;;;;;13.23;2.30;;;;;;;-145.69;100.00;52487.97;5155872;27;20207;-84
2022/11/02 06:03:01;;;;;;;6.33;1.80;;;;;;;-145.69;100.00;52511.72;5155757;27;20198;-85
2022/11/02 06:05:28;;;;;;;9.70;2.07;;;;;;;-145.69;100.00;52523.59;5153409;27;20203;-85
2022/11/02 06:07:58;;;;;;;7.03;1.97;;;;;;;-145.69;100.00;52527.56;5138891;27;20195;-85
2022/11/02 06:10:24;;;;;;;8.40;2.00;;;;;;;-145.69;100.00;52484.00;5141855;27;20224;-85
2022/11/02 06:12:56;;;;;;;15.70;2.00;;;;;;;-145.69;100.00;52517.66;5134927;27;20233;-84
2022/11/02 06:15:22;;;;;;;12.03;2.27;;;;;;;-145.69;100.00;52499.84;5134744;27;20287;-85
2022/11/02 06:17:50;;;;;;;13.53;2.00;;;;;;;-145.69;100.00;52509.75;5134860;27;20204;-85
2022/11/02 06:20:17;;;;;;;11.43;2.00;;;;;;;-145.69;100.00;52523.59;5145124;27;20615;-85
2022/11/02 06:22:44;;;;;;;13.10;2.60;;;;;;;-145.69;100.00;52513.69;5155649;27;20623;-85
2022/11/02 06:25:11;;;;;;;11.13;2.33;;;;;;;-145.69;100.00;52515.69;5146343;27;20206;-85
2022/11/02 06:27:37;;;;;;;10.50;2.07;;;;;;;-145.69;100.00;52495.88;5134197;27;20200;-85
2022/11/02 06:30:06;;;;;;;16.97;2.80;;;;;;;-145.69;100.00;52464.19;5133967;27;20626;-85
2022/11/02 06:32:33;;;;;;;23.07;2.60;;;;;;;-145.69;100.00;52478.06;5147910;27;20200;-84
2022/11/02 06:35:00;;;;;;;8.57;1.77;;;;;;;-145.69;100.00;52527.56;5154753;27;20216;-85
2022/11/02 06:37:26;;;;;;;18.80;2.38;;;;;;;-145.69;100.00;52482.00;5155109;27;20554;-85
2022/11/02 06:39:56;;;;;;;9.60;2.27;;;;;;;-145.69;100.00;52515.69;5155282;27;20202;-85
2022/11/02 06:42:22;;;;;;;18.17;2.63;;;;;;;-145.69;100.00;52495.88;5155257;27;20215;-85
2022/11/02 06:44:49;;;;;;;16.77;3.30;;;;;;;-145.69;100.00;52519.63;5153957;27;20195;-84
2022/11/02 06:47:17;;;;;;;13.37;2.60;;;;;;;-145.69;100.00;52489.94;5134447;27;20212;-85
2022/11/02 06:49:44;;;;;;;13.90;2.50;;;;;;;-145.69;100.00;52491.91;5134488;27;20727;-85
2022/11/02 06:52:13;;;;;;;13.67;2.40;;;;;;;-145.69;100.00;52497.84;5133949;28;20205;-85
2022/11/02 06:54:39;;;;;;;12.40;2.40;;;;;;;-145.69;100.00;52487.97;5133360;28;20200;-85
2022/11/02 06:57:06;;;;;;;9.80;2.17;;;;;;;-145.69;100.00;52476.06;5153467;27;20188;-85
2022/11/02 06:59:32;;;;;;;6.27;2.03;;;;;;;-145.69;100.00;52480.03;5155185;27;20277;-84
2022/11/02 07:01:59;;;;;;;19.13;2.33;;;;;;;-145.69;100.00;52442.41;5155072;27;20199;-83
2022/11/02 07:04:27;;;;;;;10.13;2.20;;;;;;;-145.69;100.00;52484.00;5154821;27;20286;-85
2022/11/02 07:06:53;;;;;;;13.93;2.80;;;;;;;-145.69;100.00;52484.00;5136709;27;20283;-85
2022/11/02 07:09:20;;;;;;;13.73;1.73;;;;;;;-145.69;100.00;52468.16;5134440;27;20196;-84
2022/11/02 07:11:46;;;;;;;10.30;2.00;;;;;;;-145.69;100.00;52474.09;5133920;27;20235;-85
2022/11/02 07:14:13;;;;;;;10.73;2.70;;;;;;;-145.69;100.00;52468.16;5134021;28;20288;-85
2022/11/02 07:16:39;;;;;;;7.57;2.30;;;;;;;-145.69;100.00;52452.31;5149573;27;20329;-84
2022/11/02 07:19:06;;;;;;;7.47;1.70;;;;;;;-145.69;100.00;52482.00;5154719;27;20200;-84
2022/11/02 07:21:34;;;;;;;12.50;1.90;;;;;;;-145.69;100.00;52472.13;5154777;27;20200;-85
2022/11/02 07:24:00;;;;;;;12.63;2.07;;;;;;;-145.69;100.00;52466.16;5154622;27;20222;-85
2022/11/02 07:26:27;;;;;;;8.13;1.87;;;;;;;-145.69;100.00;52452.31;5141241;27;20197;-85
2022/11/02 07:28:53;;;;;;;7.27;1.80;;;;;;;-145.69;100.00;52430.53;5133760;27;20586;-83
2022/11/02 07:31:20;;;;;;;14.93;2.20;;;;;;;-145.69;100.00;52424.59;5133615;27;20459;-84
2022/11/02 07:33:46;;;;;;;8.70;1.60;;;;;;;-145.69;100.00;52462.22;5133670;28;20674;-84
2022/11/02 07:36:13;;;;;;;8.90;2.43;;;;;;;-145.69;100.00;52446.38;5144281;27;20192;-84
2022/11/02 07:38:42;;;;;;;7.87;1.93;;;;;;;-145.69;100.00;52454.28;5153931;27;20212;-84
2022/11/02 07:41:10;;;;;;;8.37;1.90;;;;;;;-145.69;100.00;52462.22;5157860;27;20196;-84
2022/11/02 07:43:37;;;;;;;3.97;1.13;;;;;;;-145.69;100.00;52452.31;5154979;27;20188;-84
2022/11/02 07:46:04;;;;;;;9.03;1.77;;;;;;;-145.69;100.00;52432.50;5147625;27;20231;-84
2022/11/02 07:48:31;;;;;;;15.37;1.60;;;;;;;-145.69;100.00;52450.31;5158311;27;20192;-84
2022/11/02 07:50:58;;;;;;;8.23;1.50;;;;;;;-145.69;100.00;52410.72;5157754;27;20230;-85
2022/11/02 07:53:25;;;;;;;7.77;1.43;;;;;;;-145.69;100.00;52416.66;5158045;27;20257;-83
2022/11/02 07:55:53;;;;;;;8.47;1.50;;;;;;;-145.69;100.00;52466.16;5157831;27;20223;-84
2022/11/02 07:58:19;;;;;;;13.83;1.80;;;;;;;-145.69;100.00;52456.28;5133300;27;20197;-83
2022/11/02 08:00:46;;;;;;;6.13;1.60;;;;;;;-145.69;100.00;52424.59;5116378;28;20205;-83
2022/11/02 08:03:13;;;;;;;7.47;1.10;;;;;;;-145.69;100.00;52442.41;5133475;27;20527;-84
2022/11/02 08:05:42;;;;;;;5.80;1.20;;;;;;;-145.69;100.00;52448.34;5157795;27;20226;-84
2022/11/02 08:08:11;;;;;;;8.13;1.45;;;;;;;-145.69;100.00;52456.28;5157191;27;20428;-83
2022/11/02 08:10:38;;;;;;;10.03;1.40;;;;;;;-145.69;100.00;52428.53;5157700;27;20224;-83
2022/11/02 08:13:06;;;;;;;6.55;1.20;;;;;;;-145.69;100.00;52418.63;5151348;27;20193;-83
2022/11/02 08:15:33;;;;;;;5.35;1.20;;;;;;;-145.69;100.00;52388.94;5136785;27;20655;-84
2022/11/02 08:18:01;;;;;;;6.32;1.58;;;;;;;-145.69;100.00;52402.78;5136799;27;20205;-83
2022/11/02 08:20:27;;;;;;;8.80;1.42;;;;;;;-145.69;100.00;52430.53;5136865;27;20196;-82
2022/11/02 08:22:54;;;;;;;6.90;1.40;;;;;;;-145.69;100.00;52414.69;5141228;27;20200;-83
2022/11/02 08:25:20;;;;;;;4.57;1.88;;;;;;;-145.69;100.00;52404.78;5157017;27;20203;-83
2022/11/02 08:27:47;;;;;;;9.18;1.02;;;;;;;-145.69;100.00;52392.91;5157192;27;20562;-82
2022/11/02 08:30:15;;;;;;;8.55;1.63;;;;;;;-145.69;100.00;52396.84;5157310;27;20550;-83
2022/11/02 08:32:41;;;;;;;4.82;1.20;;;;;;;-145.69;100.00;52404.78;5156237;27;20200;-80
2022/11/02 08:35:08;;;;;;;3.40;0.93;;;;;;;-145.69;100.00;52381.00;5139109;27;20323;-81
2022/11/02 08:37:35;;;;;;;6.10;1.05;;;;;;;-145.69;100.00;52448.34;5138392;27;20193;-83
2022/11/02 08:40:02;;;;;;;4.50;1.10;;;;;;;-145.69;100.00;52383.00;5136432;27;20285;-83
2022/11/02 08:42:28;;;;;;;9.23;1.20;;;;;;;-145.69;100.00;52404.78;5136663;27;20204;-82
2022/11/02 08:44:57;;;;;;;8.23;1.35;;;;;;;-145.69;100.00;52402.78;5157332;27;20200;-83
2022/11/02 08:47:24;;;;;;;8.18;1.45;;;;;;;-145.69;100.00;52396.84;5157473;27;20654;-82
2022/11/02 08:49:51;;;;;;;6.60;1.55;;;;;;;-145.69;100.00;52400.81;5160802;27;20204;-83
2022/11/02 08:52:18;;;;;;;7.22;1.45;;;;;;;-145.69;100.00;52412.69;5160219;27;20235;-82
2022/11/02 08:54:44;;;;;;;4.35;1.33;;;;;;;-145.69;100.00;52408.75;5138055;27;20196;-82
2022/11/02 08:57:11;;;;;;;3.17;1.10;;;;;;;-145.69;100.00;52392.91;5136837;27;20205;-82
2022/11/02 08:59:37;;;;;;;6.43;1.20;;;;;;;-145.69;100.00;52398.84;5135834;27;20196;-84
2022/11/02 09:02:04;;;;;;;4.20;1.38;;;;;;;-145.69;100.00;52396.84;5136896;27;20670;-83
2022/11/02 09:04:32;;;;;;;3.75;1.45;;;;;;;-145.69;100.00;52388.94;5135859;27;20200;-83
2022/11/02 09:06:58;;;;;;;6.30;1.67;;;;;;;-145.69;100.00;52412.69;5136025;27;20558;-82
2022/11/02 09:09:25;;;;;;;2.67;1.05;;;;;;;-145.69;100.00;52388.94;5136164;27;20197;-83
2022/11/02 09:11:51;;;;;;;5.60;1.50;;;;;;;-145.69;100.00;52402.78;5149599;27;20219;-83
2022/11/02 09:14:18;;;;;;;5.75;1.45;;;;;;;-145.69;100.00;52381.00;5156352;27;20291;-83
2022/11/02 09:16:44;;;;;;;6.53;1.38;;;;;;;-145.69;100.00;52373.09;5156318;27;20207;-83
2022/11/02 09:19:11;;;;;;;12.13;2.03;;;;;;;-145.69;100.00;52406.75;5142567;27;20197;-83
2022/11/02 09:21:39;;;;;;;5.22;1.35;;;;;;;-145.69;100.00;52388.94;5135688;27;20338;-83
2022/11/02 09:24:06;;;;;;;3.30;1.63;;;;;;;-145.69;100.00;52402.78;5135741;27;20208;-83
2022/11/02 09:26:33;;;;;;;11.68;1.75;;;;;;;-145.69;100.00;52394.88;5135395;27;20249;-83
2022/11/02 09:28:59;;;;;;;6.32;1.50;;;;;;;-145.69;100.00;52398.84;5145940;27;20198;-83
2022/11/02 09:31:28;;;;;;;2.78;1.30;;;;;;;-145.69;100.00;52388.94;5155870;27;20234;-83
2022/11/02 09:33:54;;;;;;;11.35;1.77;;;;;;;-145.69;100.00;52400.81;5155563;27;20638;-84
2022/11/02 09:36:21;;;;;;;10.68;1.88;;;;;;;-145.69;100.00;52398.84;5155776;27;20202;-83
2022/11/02 09:38:49;;;;;;;6.90;2.20;;;;;;;-145.69;100.00;52379.03;5146399;27;20227;-84
2022/11/02 09:41:23;;;;;;;8.52;2.40;;;;;;;-145.69;100.00;52375.06;5135087;27;20205;-83
2022/11/02 09:44:00;;;;;;;7.00;2.30;;;;;;;-145.69;100.00;52400.81;5134983;27;20199;-83
2022/11/02 09:46:30;;;;;;;6.65;2.30;;;;;;;-145.69;100.00;52381.00;5135349;27;20212;-83
2022/11/02 09:49:01;;;;;;;7.88;1.90;;;;;;;-145.69;100.00;52357.25;5145021;27;20570;-83
2022/11/02 09:51:32;;;;;;;7.13;2.10;;;;;;;-145.69;100.00;52388.94;5155311;27;20227;-83
2022/11/02 09:54:05;;;;;;;6.18;1.67;;;;;;;-145.69;100.00;52359.22;5155523;27;20653;-83
2022/11/02 09:56:33;;;;;;;6.60;1.63;;;;;;;-145.69;100.00;52337.44;5155783;27;20235;-84
2022/11/02 09:59:02;;;;;;;6.82;1.70;;;;;;;-145.69;100.00;52377.06;5144493;27;20655;-83
2022/11/02 10:01:43;;;;;;;10.27;1.73;;;;;;;-145.69;100.00;52400.81;5134385;27;20295;-83
2022/11/02 10:04:42;;;;;;;7.90;2.17;;;;;;;-145.69;100.00;52369.13;5133747;27;20201;-82
2022/11/02 10:07:20;;;;;;;7.90;1.92;;;;;;;-145.69;100.00;52377.06;5134813;27;20207;-83
2022/11/02 10:09:53;;;;;;;6.38;1.73;;;;;;;-145.69;100.00;52408.75;5150808;27;20196;-83
2022/11/02 10:12:28;;;;;;;5.05;1.60;;;;;;;-145.69;100.00;52386.97;5157226;27;20223;-83
2022/11/02 10:15:01;;;;;;;5.78;1.83;;;;;;;-145.69;100.00;52394.88;5156854;27;20290;-82
2022/11/02 10:17:30;;;;;;;8.73;1.52;;;;;;;-145.69;100.00;52367.16;5157185;27;20227;-83
2022/11/02 10:20:01;;;;;;;6.60;1.60;;;;;;;-145.69;100.00;52375.06;5124086;27;20205;-86
2022/11/02 10:22:32;;;;;;;8.18;1.52;;;;;;;-145.69;100.00;52396.84;5113910;28;20199;-85
2022/11/02 10:25:04;;;;;;;8.88;1.80;;;;;;;-145.69;100.00;52400.81;5131119;27;20196;-82
2022/11/02 10:27:38;;;;;;;5.93;1.63;;;;;;;-145.69;100.00;52349.31;5135669;27;20242;-83
2022/11/02 10:30:07;;;;;;;6.40;1.27;;;;;;;-145.69;100.00;52396.84;5152379;27;20703;-82
2022/11/02 10:32:36;;;;;;;7.90;1.33;;;;;;;-145.69;100.00;52345.38;5139884;27;20221;-83
2022/11/02 10:35:06;;;;;;;8.32;1.50;;;;;;;-145.69;100.00;52377.06;5132843;27;20237;-83
2022/11/02 10:37:46;;;;;;;5.05;1.30;;;;;;;-145.69;100.00;52333.47;5134075;27;20273;-83
2022/11/02 10:40:28;;;;;;;6.28;1.67;;;;;;;-145.69;99.93;52341.41;5140700;27;20191;-83
2022/11/02 10:43:12;;;;;;;9.27;1.70;;;;;;;-145.69;96.70;52355.28;5154634;27;20200;-83
2022/11/02 10:46:02;;;;;;;4.68;1.58;;;;;;;-145.69;95.27;52303.78;5154769;27;20204;-84
2022/11/02 10:48:36;;;;;;;3.42;1.08;;;;;;;-145.69;96.56;52367.16;5154857;27;20196;-83
2022/11/02 10:51:09;;;;;;;4.40;1.38;;;;;;;-145.69;100.00;52353.28;5140822;27;20642;-84
2022/11/02 10:53:39;;;;;;;6.15;1.70;;;;;;;-145.69;100.00;52367.16;5134173;27;20201;-84
2022/11/02 10:56:14;;;;;;;7.07;1.50;;;;;;;-145.69;100.00;52363.19;5133952;27;20201;-84
2022/11/02 10:58:46;;;;;;;3.50;1.02;;;;;;;-145.69;96.37;52377.06;5133653;27;20301;-84
2022/11/02 11:01:13;;;;;;;3.22;0.90;;;;;;;-145.69;96.00;52375.06;5148470;27;20188;-84
2022/11/02 11:03:57;;;;;;;7.60;1.40;;;;;;;-145.69;95.23;52363.19;5154620;27;20192;-83
2022/11/02 11:06:25;;;;;;;3.30;1.00;;;;;;;-145.69;94.58;52333.47;5144025;27;20204;-84
2022/11/02 11:08:52;;;;;;;2.45;0.70;;;;;;;-145.69;98.88;52377.06;5133578;28;20654;-83
2022/11/02 11:11:23;;;;;;;5.47;1.17;;;;;;;-145.69;94.52;52353.28;5133488;27;20642;-83
2022/11/02 11:13:57;;;;;;;3.67;0.90;;;;;;;-145.69;94.97;52363.19;5133809;27;20205;-83
2022/11/02 11:16:41;;;;;;;6.03;1.10;;;;;;;-145.69;94.71;52369.13;5146009;27;20652;-82
2022/11/02 11:19:21;;;;;;;5.60;1.30;;;;;;;-145.69;98.66;52381.00;5158491;27;20236;-84
2022/11/02 11:21:49;;;;;;;3.35;0.90;;;;;;;-145.69;98.08;52353.28;5138044;27;20219;-85
2022/11/02 11:24:22;;;;;;;6.35;1.00;;;;;;;-145.69;96.07;52371.13;5139300;27;20196;-82
2022/11/02 11:27:02;;;;;;;6.55;1.15;;;;;;;-145.69;93.21;52365.16;5138064;27;20547;-84
2022/11/02 11:29:31;;;;;;;7.55;1.20;;;;;;;-145.69;94.58;52369.13;5137545;27;20201;-83
2022/11/02 11:31:58;;;;;;;9.00;1.23;;;;;;;-145.69;92.66;52347.34;5137223;27;20241;-84